createdAt,value
2018-09-04T00:00:40.874Z,12.53
2018-09-04T00:03:11.319Z,14.17
2018-09-04T00:05:41.810Z,15.97
2018-09-04T00:08:14.072Z,13.63
2018-09-04T00:10:44.641Z,12.30
2018-09-04T00:13:14.621Z,17.90
2018-09-04T00:15:46.359Z,14.70
2018-09-04T00:18:16.757Z,12.07
2018-09-04T00:20:48.098Z,12.83
2018-09-04T00:23:19.200Z,12.17
2018-09-04T00:25:50.070Z,13.07
2018-09-04T00:28:20.890Z,11.53
2018-09-04T00:30:52.304Z,12.80
2018-09-04T00:33:24.372Z,12.40
2018-09-04T00:35:55.271Z,15.87
2018-09-04T00:38:27.774Z,15.47
2018-09-04T00:40:58.261Z,13.53
2018-09-04T00:43:29.420Z,13.33
2018-09-04T00:46:01.165Z,13.43
2018-09-04T00:48:33.703Z,10.93
2018-09-04T00:51:04.361Z,13.80
2018-09-04T00:53:35.159Z,14.43
2018-09-04T00:56:05.401Z,12.37
2018-09-04T00:58:35.509Z,15.37
2018-09-04T01:01:05.596Z,13.73
2018-09-04T01:03:37.290Z,13.93
2018-09-04T01:06:08.023Z,13.70
2018-09-04T01:08:38.167Z,17.00
2018-09-04T01:11:08.579Z,13.17
2018-09-04T01:13:46.237Z,15.10
2018-09-04T01:16:17.522Z,13.17
2018-09-04T01:18:48.626Z,12.43
2018-09-04T01:21:19.597Z,12.87
2018-09-04T01:23:50.149Z,13.40
2018-09-04T01:26:21.191Z,11.97
2018-09-04T01:28:52.758Z,11.93
2018-09-04T01:31:24.049Z,13.83
2018-09-04T01:33:55.328Z,12.00
2018-09-04T01:36:25.657Z,13.03
2018-09-04T01:38:58.595Z,12.07
2018-09-04T01:41:31.309Z,14.60
2018-09-04T01:44:02.994Z,17.17
2018-09-04T01:46:33.686Z,10.87
2018-09-04T01:49:05.007Z,11.20
2018-09-04T01:51:35.694Z,11.60
2018-09-04T01:54:06.802Z,10.80
2018-09-04T01:56:37.347Z,10.80
2018-09-04T01:59:08.570Z,10.50
2018-09-04T02:01:39.651Z,11.13
2018-09-04T02:04:10.574Z,11.63
2018-09-04T02:06:41.065Z,9.67
2018-09-04T02:09:11.709Z,10.00
2018-09-04T02:11:42.939Z,11.53
2018-09-04T02:14:14.039Z,14.53
2018-09-04T02:16:45.921Z,9.70
2018-09-04T02:19:16.112Z,12.57
2018-09-04T02:21:48.815Z,12.23
2018-09-04T02:24:20.430Z,12.93
2018-09-04T02:26:51.342Z,14.80
2018-09-04T02:29:21.908Z,10.03
2018-09-04T02:31:54.113Z,11.97
2018-09-04T02:34:25.717Z,9.83
2018-09-04T02:36:56.967Z,9.70
2018-09-04T02:39:28.214Z,10.67
2018-09-04T02:41:59.270Z,11.83
2018-09-04T02:44:30.708Z,10.17
2018-09-04T02:47:03.306Z,9.87
2018-09-04T02:49:34.362Z,9.27
2018-09-04T02:52:04.904Z,12.07
2018-09-04T02:54:35.327Z,11.33
2018-09-04T02:57:06.487Z,8.10
2018-09-04T02:59:38.199Z,14.53
2018-09-04T03:02:09.552Z,7.40
2018-09-04T03:04:40.610Z,11.23
2018-09-04T03:07:11.637Z,8.33
2018-09-04T03:09:42.656Z,9.33
2018-09-04T03:12:13.855Z,8.10
2018-09-04T03:14:44.917Z,11.07
2018-09-04T03:17:15.282Z,10.30
2018-09-04T03:19:46.562Z,9.87
2018-09-04T03:22:17.687Z,6.97
2018-09-04T03:24:47.951Z,7.43
2018-09-04T03:27:18.722Z,8.37
2018-09-04T03:29:49.542Z,10.13
2018-09-04T03:32:19.948Z,11.00
2018-09-04T03:34:50.442Z,10.43
2018-09-04T03:37:22.376Z,9.87
2018-09-04T03:39:55.342Z,9.10
2018-09-04T03:42:26.634Z,7.50
2018-09-04T03:44:58.262Z,8.30
2018-09-04T03:47:29.164Z,10.33
2018-09-04T03:49:59.643Z,9.80
2018-09-04T03:52:31.878Z,10.20
2018-09-04T03:55:02.587Z,9.17
2018-09-04T03:57:33.310Z,10.50
2018-09-04T04:00:06.117Z,14.10
2018-09-04T04:02:36.605Z,11.07
2018-09-04T04:05:08.043Z,10.30
2018-09-04T04:07:39.432Z,12.10
2018-09-04T04:10:10.655Z,10.60
2018-09-04T04:12:43.991Z,9.93
2018-09-04T04:15:14.673Z,12.57
2018-09-04T04:17:45.512Z,8.83
2018-09-04T04:20:17.672Z,10.90
2018-09-04T04:22:49.181Z,8.07
2018-09-04T04:25:20.908Z,7.63
2018-09-04T04:27:51.685Z,8.50
2018-09-04T04:30:23.520Z,6.70
2018-09-04T04:32:56.790Z,9.77
2018-09-04T04:35:27.873Z,10.47
2018-09-04T04:37:57.836Z,7.93
2018-09-04T04:40:28.474Z,9.17
2018-09-04T04:43:01.180Z,6.53
2018-09-04T04:45:32.692Z,10.20
2018-09-04T04:48:04.222Z,9.90
2018-09-04T04:50:36.980Z,7.33
2018-09-04T04:53:07.624Z,8.20
2018-09-04T04:55:38.906Z,11.30
2018-09-04T04:58:11.128Z,8.77
2018-09-04T05:00:42.830Z,8.17
2018-09-04T05:03:13.853Z,10.10
2018-09-04T05:05:44.482Z,9.57
2018-09-04T05:08:15.118Z,9.83
2018-09-04T05:10:46.196Z,9.73
2018-09-04T05:13:17.663Z,7.30
2018-09-04T05:15:49.478Z,7.43
2018-09-04T05:18:21.580Z,9.27
2018-09-04T05:20:54.141Z,7.07
2018-09-04T05:23:25.980Z,11.10
2018-09-04T05:25:57.081Z,12.90
2018-09-04T05:28:27.638Z,9.93
2018-09-04T05:30:59.691Z,11.27
2018-09-04T05:33:33.643Z,11.63
2018-09-04T05:36:05.376Z,10.47
2018-09-04T05:38:37.084Z,12.60
2018-09-04T05:41:09.031Z,15.13
2018-09-04T05:43:56.489Z,11.03
2018-09-04T05:46:44.293Z,12.40
2018-09-04T05:49:18.923Z,8.47
2018-09-04T05:51:50.139Z,12.13
2018-09-04T05:54:21.144Z,10.67
2018-09-04T05:56:52.310Z,8.53
2018-09-04T05:59:23.173Z,9.17
2018-09-04T06:01:54.813Z,8.97
2018-09-04T06:04:25.330Z,9.97
2018-09-04T06:06:56.144Z,14.50
2018-09-04T06:09:28.159Z,12.27
2018-09-04T06:11:58.833Z,8.70
2018-09-04T06:14:29.685Z,13.23
2018-09-04T06:17:00.097Z,13.33
2018-09-04T06:19:31.699Z,8.47
2018-09-04T06:22:03.371Z,11.70
2018-09-04T06:24:34.701Z,9.00
2018-09-04T06:27:07.982Z,13.10
2018-09-04T06:29:39.149Z,12.73
2018-09-04T06:32:10.932Z,11.60
2018-09-04T06:34:42.635Z,9.07
2018-09-04T06:37:13.150Z,9.57
2018-09-04T06:39:45.343Z,9.83
2018-09-04T06:42:16.468Z,8.30
2018-09-04T06:44:47.578Z,9.67
2018-09-04T06:47:18.506Z,13.27
2018-09-04T06:49:49.830Z,11.30
2018-09-04T06:52:21.609Z,9.93
2018-09-04T06:54:53.101Z,9.33
2018-09-04T06:57:24.021Z,9.73
2018-09-04T06:59:54.380Z,7.57
2018-09-04T07:02:26.381Z,8.63
2018-09-04T07:04:57.242Z,7.00
2018-09-04T07:07:28.146Z,9.27
2018-09-04T07:09:59.344Z,7.67
2018-09-04T07:12:30.349Z,9.87
2018-09-04T07:15:01.046Z,9.77
2018-09-04T07:17:32.466Z,6.43
2018-09-04T07:20:03.825Z,14.37
2018-09-04T07:22:34.931Z,7.07
2018-09-04T07:25:06.193Z,9.27
2018-09-04T07:27:37.343Z,9.97
2018-09-04T07:30:09.735Z,9.90
2018-09-04T07:32:40.250Z,7.23
2018-09-04T07:35:11.310Z,8.13
2018-09-04T07:37:42.857Z,7.47
2018-09-04T07:40:13.869Z,15.63
2018-09-04T07:42:45.051Z,12.90
2018-09-04T07:45:16.260Z,10.37
2018-09-04T07:47:46.972Z,6.67
2018-09-04T07:50:17.307Z,9.53
2018-09-04T07:52:48.513Z,12.90
2018-09-04T07:55:19.899Z,8.37
2018-09-04T07:57:52.562Z,8.63
2018-09-04T08:00:23.988Z,6.93
2018-09-04T08:02:54.999Z,11.20
2018-09-04T08:05:26.419Z,8.27
2018-09-04T08:07:58.422Z,8.37
2018-09-04T08:10:32.621Z,6.77
2018-09-04T08:13:06.803Z,8.23
2018-09-04T08:15:38.034Z,9.13
2018-09-04T08:18:11.138Z,13.40
2018-09-04T08:20:42.916Z,11.13
2018-09-04T08:23:13.877Z,8.10
2018-09-04T08:25:44.343Z,8.90
2018-09-04T08:28:15.688Z,11.47
2018-09-04T08:30:47.761Z,11.83
2018-09-04T08:33:18.214Z,11.27
2018-09-04T08:35:49.559Z,9.60
2018-09-04T08:38:19.941Z,7.20
2018-09-04T08:40:50.264Z,10.47
2018-09-04T08:43:22.108Z,10.03
2018-09-04T08:45:53.666Z,11.27
2018-09-04T08:48:24.282Z,12.40
2018-09-04T08:50:55.299Z,8.90
2018-09-04T08:53:27.278Z,7.57
2018-09-04T08:55:58.409Z,7.47
2018-09-04T08:58:29.619Z,10.43
2018-09-04T09:01:00.774Z,10.70
2018-09-04T09:03:31.435Z,9.07
2018-09-04T09:06:03.379Z,9.20
2018-09-04T09:08:34.331Z,11.73
2018-09-04T09:11:05.673Z,9.73
2018-09-04T09:13:37.285Z,10.07
2018-09-04T09:16:08.894Z,7.07
2018-09-04T09:18:40.365Z,7.40
2018-09-04T09:21:11.438Z,7.63
2018-09-04T09:23:42.616Z,10.43
2018-09-04T09:26:14.596Z,8.90
2018-09-04T09:28:45.956Z,10.20
2018-09-04T09:31:17.029Z,8.43
2018-09-04T09:33:47.673Z,9.57
2018-09-04T09:36:18.721Z,15.60
2018-09-04T09:38:49.852Z,8.03
2018-09-04T09:41:21.416Z,12.07
2018-09-04T09:43:53.277Z,7.10
2018-09-04T09:46:25.599Z,10.30
2018-09-04T09:48:56.598Z,6.47
2018-09-04T09:51:27.522Z,7.77
2018-09-04T09:53:58.841Z,6.33
2018-09-04T09:56:29.411Z,6.33
2018-09-04T09:59:00.970Z,7.37
2018-09-04T10:01:36.778Z,7.13
2018-09-04T10:04:09.076Z,8.10
2018-09-04T10:06:40.659Z,5.60
2018-09-04T10:09:11.659Z,5.50
2018-09-04T10:11:43.381Z,5.07
2018-09-04T10:14:15.303Z,6.37
2018-09-04T10:16:47.249Z,6.77
2018-09-04T10:19:18.720Z,8.00
2018-09-04T10:21:52.266Z,6.73
2018-09-04T10:24:23.291Z,5.03
2018-09-04T10:26:53.930Z,4.97
2018-09-04T10:29:24.899Z,6.27
2018-09-04T10:31:55.493Z,5.13
2018-09-04T10:34:26.154Z,5.80
2018-09-04T10:36:57.095Z,7.73
2018-09-04T10:39:32.210Z,9.73
2018-09-04T10:42:02.610Z,5.53
2018-09-04T10:44:34.514Z,7.27
2018-09-04T10:47:07.256Z,8.93
2018-09-04T10:49:38.543Z,10.13
2018-09-04T10:52:09.953Z,9.03
2018-09-04T10:54:40.880Z,5.13
2018-09-04T10:57:12.051Z,5.90
2018-09-04T10:59:43.682Z,6.67
2018-09-04T11:02:16.009Z,5.00
2018-09-04T11:04:48.616Z,5.37
2018-09-04T11:07:20.478Z,6.27
2018-09-04T11:09:52.756Z,7.07
2018-09-04T11:12:24.155Z,5.27
2018-09-04T11:14:56.087Z,4.63
2018-09-04T11:17:27.659Z,5.10
2018-09-04T11:19:58.868Z,7.00
2018-09-04T11:22:31.165Z,8.80
2018-09-04T11:25:03.016Z,5.03
2018-09-04T11:27:33.630Z,5.53
2018-09-04T11:30:05.024Z,5.93
2018-09-04T11:32:36.787Z,5.33
2018-09-04T11:35:07.778Z,6.37
2018-09-04T11:37:38.325Z,5.47
2018-09-04T11:40:10.819Z,8.80
2018-09-04T11:42:41.975Z,6.23
2018-09-04T11:45:13.147Z,5.00
2018-09-04T11:47:45.604Z,6.90
2018-09-04T11:50:16.162Z,4.97
2018-09-04T11:52:47.691Z,5.10
2018-09-04T11:55:19.656Z,5.23
2018-09-04T11:57:50.725Z,6.23
2018-09-04T12:00:25.582Z,5.50
2018-09-04T12:02:56.798Z,5.77
2018-09-04T12:05:29.000Z,5.00
2018-09-04T12:07:59.948Z,6.60
2018-09-04T12:10:31.152Z,4.73
2018-09-04T12:13:03.798Z,6.27
2018-09-04T12:15:41.833Z,9.20
2018-09-04T12:18:12.307Z,5.90
2018-09-04T12:20:50.600Z,4.87
2018-09-04T12:23:21.369Z,6.83
2018-09-04T12:25:53.284Z,4.70
2018-09-04T12:28:24.382Z,6.40
2018-09-04T12:30:56.158Z,4.20
2018-09-04T12:33:27.660Z,5.47
2018-09-04T12:35:59.915Z,4.80
2018-09-04T12:38:32.688Z,8.13
2018-09-04T12:41:21.395Z,7.33
2018-09-04T12:43:51.964Z,6.10
2018-09-04T12:46:23.431Z,6.10
2018-09-04T12:48:55.778Z,4.80
2018-09-04T12:51:26.340Z,5.13
2018-09-04T12:53:57.072Z,7.17
2018-09-04T12:56:28.748Z,3.80
2018-09-04T12:58:59.666Z,5.53
2018-09-04T13:01:30.863Z,5.63
2018-09-04T13:04:02.059Z,10.00
2018-09-04T13:06:32.643Z,5.90
2018-09-04T13:09:04.303Z,4.27
2018-09-04T13:11:36.968Z,6.63
2018-09-04T13:14:08.767Z,4.87
2018-09-04T13:16:40.031Z,4.23
2018-09-04T13:19:11.492Z,4.33
2018-09-04T13:21:42.774Z,5.40
2018-09-04T13:24:14.915Z,5.20
2018-09-04T13:26:45.929Z,5.10
2018-09-04T13:29:17.640Z,5.63
2018-09-04T13:31:50.311Z,7.07
2018-09-04T13:34:21.993Z,3.90
2018-09-04T13:36:54.137Z,4.13
2018-09-04T13:39:26.019Z,3.90
2018-09-04T13:41:57.638Z,5.95
2018-09-04T13:44:29.268Z,3.72
2018-09-04T13:47:00.037Z,7.60
2018-09-04T13:49:33.135Z,4.17
2018-09-04T13:52:04.497Z,5.83
2018-09-04T13:54:34.517Z,5.77
2018-09-04T13:57:05.785Z,5.33
2018-09-04T13:59:36.756Z,7.97
2018-09-04T14:02:07.894Z,4.40
2018-09-04T14:04:40.118Z,5.03
2018-09-04T14:07:11.110Z,4.23
2018-09-04T14:09:43.836Z,4.27
2018-09-04T14:12:14.214Z,4.63
2018-09-04T14:14:46.090Z,4.73
2018-09-04T14:17:19.872Z,5.00
2018-09-04T14:19:50.402Z,5.83
2018-09-04T14:22:21.259Z,4.20
2018-09-04T14:24:51.827Z,5.93
2018-09-04T14:27:22.383Z,7.53
2018-09-04T14:29:54.131Z,8.70
2018-09-04T14:32:26.717Z,3.90
2018-09-04T14:34:58.004Z,6.73
2018-09-04T14:37:30.132Z,7.13
2018-09-04T14:40:01.958Z,6.80
2018-09-04T14:42:32.695Z,3.90
2018-09-04T14:45:03.805Z,4.93
2018-09-04T14:47:34.780Z,4.53
2018-09-04T14:50:05.248Z,3.50
2018-09-04T14:52:36.300Z,5.13
2018-09-04T14:55:08.449Z,4.20
2018-09-04T14:57:39.482Z,4.90
2018-09-04T15:00:11.582Z,4.03
2018-09-04T15:02:41.996Z,4.97
2018-09-04T15:05:13.496Z,6.03
2018-09-04T15:07:44.625Z,6.13
2018-09-04T15:10:16.259Z,4.80
2018-09-04T15:12:48.330Z,4.13
2018-09-04T15:15:19.767Z,4.90
2018-09-04T15:17:50.591Z,5.90
2018-09-04T15:20:21.435Z,5.30
2018-09-04T15:22:52.363Z,4.10
2018-09-04T15:25:23.709Z,4.07
2018-09-04T15:27:54.476Z,3.87
2018-09-04T15:30:24.533Z,5.90
2018-09-04T15:32:55.883Z,5.03
2018-09-04T15:35:26.524Z,6.53
2018-09-04T15:37:56.649Z,4.80
2018-09-04T15:40:27.186Z,4.50
2018-09-04T15:42:57.652Z,4.13
2018-09-04T15:45:28.663Z,4.13
2018-09-04T15:47:58.687Z,4.93
2018-09-04T15:50:29.463Z,4.47
2018-09-04T15:52:59.532Z,4.90
2018-09-04T15:55:30.685Z,4.87
2018-09-04T15:58:01.683Z,7.37
2018-09-04T16:00:32.684Z,6.33
2018-09-04T16:03:03.282Z,4.97
2018-09-04T16:05:33.807Z,4.43
2018-09-04T16:08:03.966Z,5.97
2018-09-04T16:10:35.103Z,4.03
2018-09-04T16:13:05.852Z,9.30
2018-09-04T16:15:36.715Z,5.27
2018-09-04T16:18:07.195Z,4.30
2018-09-04T16:20:38.419Z,5.40
2018-09-04T16:23:08.690Z,6.73
2018-09-04T16:25:38.727Z,4.70
2018-09-04T16:28:09.405Z,6.90
2018-09-04T16:30:40.320Z,4.80
2018-09-04T16:33:10.406Z,4.43
2018-09-04T16:35:40.808Z,6.63
2018-09-04T16:38:12.389Z,5.23
2018-09-04T16:40:42.906Z,6.93
2018-09-04T16:43:13.448Z,8.60
2018-09-04T16:45:46.243Z,4.80
2018-09-04T16:48:17.339Z,6.80
2018-09-04T16:50:48.099Z,4.37
2018-09-04T16:53:20.169Z,4.50
2018-09-04T16:55:50.875Z,4.70
2018-09-04T16:58:20.887Z,4.87
2018-09-04T17:00:53.419Z,9.37
2018-09-04T17:03:23.994Z,4.37
2018-09-04T17:05:55.092Z,5.60
2018-09-04T17:08:26.096Z,4.60
2018-09-04T17:10:57.062Z,5.63
2018-09-04T17:13:28.672Z,5.60
2018-09-04T17:16:00.268Z,6.13
2018-09-04T17:18:31.676Z,4.30
2018-09-04T17:21:03.560Z,4.60
2018-09-04T17:23:34.458Z,4.83
2018-09-04T17:26:06.258Z,4.33
2018-09-04T17:28:37.729Z,10.70
2018-09-04T17:31:08.446Z,7.40
2018-09-04T17:33:39.292Z,6.10
2018-09-04T17:36:10.209Z,6.13
2018-09-04T17:38:41.231Z,4.10
2018-09-04T17:41:12.704Z,4.47
2018-09-04T17:43:43.968Z,5.87
2018-09-04T17:46:14.596Z,6.57
2018-09-04T17:48:46.357Z,6.83
2018-09-04T17:51:17.751Z,6.27
2018-09-04T17:53:49.953Z,6.73
2018-09-04T17:56:21.216Z,4.60
2018-09-04T17:58:53.091Z,5.07
2018-09-04T18:01:24.649Z,6.13
2018-09-04T18:03:55.545Z,4.97
2018-09-04T18:06:26.787Z,4.87
2018-09-04T18:08:57.880Z,5.97
2018-09-04T18:11:28.901Z,5.27
2018-09-04T18:14:00.065Z,7.73
2018-09-04T18:16:30.163Z,9.07
2018-09-04T18:19:00.767Z,5.60
2018-09-04T18:21:30.899Z,6.40
2018-09-04T18:24:01.705Z,6.83
2018-09-04T18:26:32.204Z,7.43
2018-09-04T18:29:03.339Z,7.77
2018-09-04T18:31:33.538Z,7.23
2018-09-04T18:34:04.658Z,7.73
2018-09-04T18:36:35.530Z,5.87
2018-09-04T18:39:06.739Z,7.10
2018-09-04T18:41:37.943Z,6.53
2018-09-04T18:44:08.607Z,6.97
2018-09-04T18:46:39.381Z,10.00
2018-09-04T18:49:11.484Z,5.10
2018-09-04T18:51:43.251Z,4.47
2018-09-04T18:54:14.808Z,6.63
2018-09-04T18:56:47.125Z,4.97
2018-09-04T18:59:18.222Z,5.17
2018-09-04T19:01:49.615Z,5.03
2018-09-04T19:04:21.365Z,11.03
2018-09-04T19:06:54.005Z,7.37
2018-09-04T19:09:25.280Z,4.70
2018-09-04T19:11:56.945Z,5.30
2018-09-04T19:14:29.077Z,4.83
2018-09-04T19:17:01.690Z,6.90
2018-09-04T19:19:33.215Z,5.00
2018-09-04T19:22:04.307Z,6.17
2018-09-04T19:24:35.940Z,8.13
2018-09-04T19:27:09.699Z,9.03
2018-09-04T19:29:41.825Z,5.43
2018-09-04T19:32:11.897Z,8.40
2018-09-04T19:34:53.302Z,6.47
2018-09-04T19:37:37.398Z,8.27
2018-09-04T19:40:12.808Z,5.60
2018-09-04T19:42:44.396Z,7.67
2018-09-04T19:45:16.804Z,12.40
2018-09-04T19:47:46.509Z,9.90
2018-09-04T19:50:16.387Z,9.67
2018-09-04T19:52:47.351Z,14.27
2018-09-04T19:55:17.848Z,12.97
2018-09-04T19:57:48.131Z,10.50
2018-09-04T20:00:18.035Z,7.30
2018-09-04T20:02:47.900Z,7.93
2018-09-04T20:05:18.006Z,10.60
2018-09-04T20:07:49.040Z,8.27
2018-09-04T20:10:19.053Z,9.63
2018-09-04T20:12:49.204Z,11.83
2018-09-04T20:15:18.975Z,8.07
2018-09-04T20:17:48.908Z,7.47
2018-09-04T20:20:18.676Z,10.17
2018-09-04T20:22:48.375Z,9.03
2018-09-04T20:25:17.990Z,9.73
2018-09-04T20:27:47.814Z,7.87
2018-09-04T20:30:17.434Z,7.53
2018-09-04T20:32:47.438Z,6.97
2018-09-04T20:35:17.082Z,9.60
2018-09-04T20:37:47.221Z,6.67
2018-09-04T20:40:16.866Z,9.03
2018-09-04T20:42:47.072Z,6.83
2018-09-04T20:45:16.667Z,7.50
2018-09-04T20:47:46.741Z,8.07
2018-09-04T20:50:16.345Z,7.77
2018-09-04T20:52:46.309Z,9.77
2018-09-04T20:55:15.915Z,9.33
2018-09-04T20:57:56.139Z,10.27
2018-09-04T21:00:43.281Z,7.63
2018-09-04T21:03:29.594Z,6.63
2018-09-04T21:06:15.983Z,9.83
2018-09-04T21:08:56.503Z,8.10
2018-09-04T21:11:26.155Z,11.10
2018-09-04T21:13:55.805Z,8.27
2018-09-04T21:16:25.445Z,9.10
2018-09-04T21:18:55.245Z,7.93
2018-09-04T21:21:24.872Z,9.07
2018-09-04T21:23:54.493Z,9.90
2018-09-04T21:26:24.099Z,10.30
2018-09-04T21:28:53.682Z,7.10
2018-09-04T21:31:23.301Z,8.17
2018-09-04T21:33:53.324Z,13.17
2018-09-04T21:36:22.975Z,13.00
2018-09-04T21:38:52.590Z,8.70
2018-09-04T21:41:22.271Z,9.37
2018-09-04T21:43:52.311Z,7.80
2018-09-04T21:46:21.913Z,6.90
2018-09-04T21:48:52.735Z,7.77
2018-09-04T21:51:22.364Z,8.07
2018-09-04T21:54:20.732Z,9.87
2018-09-04T21:56:50.817Z,10.17
2018-09-04T21:59:20.419Z,8.47
2018-09-04T22:01:50.668Z,8.67
2018-09-04T22:04:20.254Z,9.60
2018-09-04T22:06:50.337Z,10.83
2018-09-04T22:09:20.193Z,8.30
2018-09-04T22:11:50.558Z,8.80
2018-09-04T22:14:20.118Z,7.43
2018-09-04T22:16:50.068Z,8.73
2018-09-04T22:19:19.683Z,10.00
2018-09-04T22:21:49.717Z,7.63
2018-09-04T22:24:19.272Z,7.93
2018-09-04T22:26:49.228Z,12.13
2018-09-04T22:29:18.881Z,12.80
2018-09-04T22:31:48.464Z,8.00
2018-09-04T22:34:18.019Z,9.00
2018-09-04T22:36:47.612Z,7.63
2018-09-04T22:39:17.225Z,9.57
2018-09-04T22:41:46.873Z,10.03
2018-09-04T22:44:16.546Z,9.47
2018-09-04T22:46:46.256Z,9.57
2018-09-04T22:49:15.807Z,10.93
2018-09-04T22:51:46.228Z,11.63
2018-09-04T22:54:15.884Z,10.07
2018-09-04T22:56:45.477Z,9.27
2018-09-04T22:59:15.094Z,14.50
2018-09-04T23:01:44.857Z,7.80
2018-09-04T23:04:14.532Z,8.50
2018-09-04T23:06:44.357Z,17.10
2018-09-04T23:09:13.971Z,8.47
2018-09-04T23:11:44.637Z,13.67
2018-09-04T23:14:14.259Z,13.83
2018-09-04T23:16:43.858Z,11.47
2018-09-04T23:19:13.436Z,8.80
2018-09-04T23:21:44.830Z,13.20
2018-09-04T23:24:14.450Z,11.37
2018-09-04T23:26:44.211Z,10.50
2018-09-04T23:29:13.766Z,8.90
2018-09-04T23:31:44.046Z,7.97
2018-09-04T23:34:13.695Z,8.73
2018-09-04T23:36:43.954Z,9.00
2018-09-04T23:39:13.606Z,10.10
2018-09-04T23:41:44.286Z,11.70
2018-09-04T23:44:13.850Z,10.70
2018-09-04T23:46:43.480Z,12.83
2018-09-04T23:49:13.250Z,9.20
2018-09-04T23:51:44.654Z,10.10
2018-09-04T23:54:14.243Z,12.63
2018-09-04T23:56:43.920Z,12.67
2018-09-04T23:59:13.535Z,10.87
